« Back
NWS Peachtree City, Ga » Text Product » MCN Terminal Aerodrome Forecast


Printer-friendly Version
Current Version              Previous Versions:   1  2  3  4  5  6  7  8  9  

Terminal Aerodrome Forecast

849
FTUS42 KFFC 231745
TAFMCN
TAF
KMCN 231745Z 2318/2418 10010G17KT 3SM -SHRA BR OVC006
     FM231900 16010G19KT 5SM BR VCSH OVC008
     FM232300 18010G18KT 4SM -SHRA BR OVC006
     FM240400 19009KT 2SM BR OVC006
     FM241500 24010KT P6SM SCT025=

USA.gov is the U.S. government's official web portal to all federal, state and local government web resources and services.